CDT,Max TemperatureF,Mean TemperatureF,Min TemperatureF,Max Dew PointF,MeanDew PointF,Min DewpointF,Max Humidity, Mean Humidity, Min Humidity, Max Sea Level PressureIn, Mean Sea Level PressureIn, Min Sea Level PressureIn, Max VisibilityMiles, Mean VisibilityMiles, Min VisibilityMiles, Max Wind SpeedMPH, Mean Wind SpeedMPH, Max Gust SpeedMPH,PrecipitationIn, CloudCover, Events, WindDirDegrees
2012-3-1,71,52,32,37,28,21,83,42,16,29.90,29.74,29.53,10,10,10,18,7,26,0.00,0,,168
2012-3-2,58,44,31,55,37,29,89,72,51,29.90,29.64,29.34,10,10,10,22,10,33,0.00,4,,279
2012-3-3,47,38,30,28,19,11,81,52,25,30.01,29.96,29.90,10,10,10,20,8,30,0.00,1,,269
2012-3-4,60,44,27,32,23,17,69,46,22,30.12,29.94,29.83,10,10,10,17,7,29,0.00,4,,255
2012-3-5,57,42,27,27,22,15,87,48,21,30.40,30.27,30.15,10,10,10,18,10,28,0.00,0,,158
2012-3-6,72,59,46,40,30,23,46,35,16,30.18,30.04,29.94,10,10,10,23,14,36,0.00,0,,179
2012-3-7,68,63,58,54,49,40,67,60,48,29.99,29.95,29.92,10,10,10,22,15,41,0.00,6,,184
2012-3-8,64,48,33,57,42,28,100,87,68,30.48,30.13,29.91,10,8,2,23,10,38,0.10,7,Rain,319
2012-3-9,59,44,28,27,24,19,84,49,24,30.55,30.50,30.45,10,10,10,14,5,22,0.00,0,,353
2012-3-10,65,49,33,28,23,20,62,40,18,30.45,30.34,30.23,10,10,10,12,7,16,0.00,0,,149
2012-3-11,58,50,42,58,49,31,100,92,57,30.20,30.03,29.88,10,9,2,20,12,26,0.34,8,Rain,140
2012-3-12,79,67,55,58,51,38,100,71,25,29.98,29.88,29.82,10,10,10,16,11,29,0.01,2,,192
2012-3-13,82,65,49,56,47,40,90,55,23,30.07,30.02,29.98,10,10,10,12,6,18,0.00,0,,185
2012-3-14,84,70,55,63,57,54,100,67,37,30.04,30.00,29.94,10,10,10,13,8,24,0.00,3,,188
2012-3-15,81,71,61,65,61,56,100,77,49,30.10,30.01,29.95,10,10,7,15,7,23,0.16,5,Rain-Hail-Thunderstorm,193
2012-3-16,79,67,56,64,60,57,100,86,56,30.08,30.04,29.96,10,10,7,16,8,,0.11,5,Rain-Thunderstorm,160
2012-3-17,76,67,59,64,62,58,100,82,58,30.16,29.96,29.90,10,8,1,15,7,22,0.21,5,Rain-Thunderstorm,172
2012-3-18,79,70,60,63,60,56,97,72,48,30.02,29.95,29.91,10,10,10,15,10,24,0.00,3,,165
2012-3-19,78,71,64,64,61,52,90,72,41,29.90,29.83,29.71,10,10,4,26,13,37,0.01,5,Rain-Thunderstorm,165
2012-3-20,76,66,55,63,59,55,100,92,53,29.92,29.85,29.77,10,8,2,23,8,34,1.36,8,Rain-Thunderstorm,17
2012-3-21,67,60,54,63,59,53,100,96,77,29.95,29.89,29.79,10,7,2,26,11,36,1.43,8,Rain,136
2012-3-22,67,56,47,54,50,46,100,88,49,30.02,29.95,29.88,10,10,10,20,9,31,0.06,6,Rain,143
2012-3-23,57,54,50,52,48,45,100,86,63,29.95,29.88,29.82,10,10,10,14,8,28,0.07,7,Rain,237
2012-3-24,70,60,49,53,49,46,99,70,43,29.97,29.92,29.87,10,10,10,17,7,26,0.00,4,,301
2012-3-25,76,64,53,58,54,51,92,71,48,30.08,30.03,29.97,10,8,2,10,3,,0.00,0,,360
2012-3-26,80,66,51,56,54,51,99,68,38,30.12,30.05,30.00,10,10,4,15,6,,0.00,0,,149
2012-3-27,82,70,59,56,53,50,74,57,39,30.20,29.99,29.91,10,10,10,14,10,22,0.00,0,,171
2012-3-28,81,72,62,58,57,54,80,62,44,30.01,29.95,29.89,10,10,9,9,5,,0.00,3,,209
2012-3-29,80,68,56,56,54,51,91,62,38,29.95,29.87,29.77,10,10,10,9,5,20,0.00,1,,166
2012-3-30,77,68,58,61,58,55,91,71,50,29.80,29.78,29.73,10,10,10,10,6,,0.00,3,,237
2012-3-31,83,69,55,61,56,51,97,67,33,29.86,29.80,29.75,10,10,6,9,4,,0.00,1,,146